»·PEaware :: UAL258 KLAS-KEGE

UAL258 :: KLAS-KEGE

FLIGHT INFORMATION

Flight Status: Arrived
Operator:
United Airlines
More flights by this operator :: More flights under this callsign
Pilot: Brad M. (22842)
Aircraft: AIRBUS A319
(A319)
More flights by this aircraft type
Origin: KLAS McCarran Intl
United States
Destination: KEGE Eagle Co Regl
United States
More flights between these airports :: More routes between these airports
Route: TRALR9 VERKN HVE JNC RIL RLG
File this flight plan on PilotEdge
Remarks:
Altitude:
(Current/Filed)
37,000ft
Speed:
(Current/Filed)
455kts
Departed: 05-Sep-19 04:36 PM
Arrived: 05-Sep-19 06:02 PM
Distance/Time
Traveled:
445nm/1:26
Distance/Time
To Go:
Arrived

Flight Plot

Page will automatically refresh every two minutes.

Flight plan parsing failed; only flown route is shown


Map Options




Map Legend


Flown Route
Filed Route
Departure Airport
Arrival Airport
Navaid (VOR, NDB)
Fix

Horizontal Profiles

Position Reports

Time Latitude Longitude Heading Altitude Ground
Speed
05-Sep-19 16:07 36.080258 -115.140647 94 2195ft 0kts
05-Sep-19 16:08 36.080258 -115.140647 94 2195ft 0kts
05-Sep-19 16:09 36.080258 -115.140647 94 2195ft 0kts
05-Sep-19 16:14 36.080258 -115.140647 94 2195ft 0kts
05-Sep-19 16:15 36.080258 -115.140647 94 2195ft 0kts
05-Sep-19 16:16 36.080258 -115.140647 94 2195ft 0kts
05-Sep-19 16:17 36.080258 -115.140647 94 2195ft 0kts
05-Sep-19 16:18 36.080258 -115.140647 94 2195ft 0kts
05-Sep-19 16:19 36.080258 -115.140647 94 2195ft 0kts
05-Sep-19 16:20 36.080258 -115.140647 94 2195ft 0kts
05-Sep-19 16:21 36.080258 -115.140647 94 2195ft 0kts
05-Sep-19 16:22 36.080258 -115.140647 94 2195ft 0kts
05-Sep-19 16:23 36.080258 -115.140647 94 2195ft 0kts
05-Sep-19 16:24 36.080258 -115.140647 94 2195ft 0kts
05-Sep-19 16:25 36.080275 -115.140907 94 2195ft 2kts
05-Sep-19 16:26 36.080528 -115.141556 167 2195ft 2kts
05-Sep-19 16:27 36.080621 -115.141574 179 2195ft 0kts
05-Sep-19 16:28 36.080620 -115.141574 179 2195ft 0kts
05-Sep-19 16:29 36.078973 -115.141596 179 2195ft 13kts
05-Sep-19 16:30 36.077545 -115.143428 270 2195ft 13kts
05-Sep-19 16:31 36.077938 -115.149444 274 2195ft 14kts
05-Sep-19 16:32 36.078051 -115.155236 269 2195ft 13kts
05-Sep-19 16:33 36.078012 -115.160802 264 2195ft 9kts
05-Sep-19 16:34 36.077404 -115.161301 179 2195ft 4kts
05-Sep-19 16:35 36.076387 -115.157904 89 2195ft 69kts
05-Sep-19 16:36 36.076677 -115.105029 89 3191ft 179kts
05-Sep-19 16:37 36.076898 -115.040394 92 4524ft 204kts
05-Sep-19 16:38 36.076534 -114.961281 89 5845ft 263kts
05-Sep-19 16:39 36.090060 -114.863856 78 8225ft 298kts
05-Sep-19 16:40 36.108305 -114.762216 79 10725ft 321kts
05-Sep-19 16:41 36.127666 -114.644481 78 12061ft 377kts
05-Sep-19 16:42 36.149692 -114.512271 79 14063ft 399kts
05-Sep-19 16:43 36.172160 -114.376054 79 16253ft 408kts
05-Sep-19 16:44 36.194678 -114.236391 82 18290ft 417kts
05-Sep-19 16:45 36.211843 -114.092501 83 20027ft 430kts
05-Sep-19 16:46 36.229596 -113.943747 83 21592ft 442kts
05-Sep-19 16:47 36.247410 -113.791509 83 23002ft 453kts
05-Sep-19 16:48 36.265540 -113.634951 83 24212ft 462kts
05-Sep-19 16:49 36.283777 -113.475830 83 25273ft 469kts
05-Sep-19 16:50 36.302042 -113.314552 83 26252ft 476kts
05-Sep-19 16:51 36.359769 -113.168788 43 27125ft 492kts
05-Sep-19 16:52 36.463645 -113.056099 43 28136ft 496kts
05-Sep-19 16:53 36.563069 -112.942783 42 30018ft 481kts
05-Sep-19 16:54 36.662291 -112.832280 40 31471ft 477kts
05-Sep-19 16:55 36.764176 -112.726331 40 32801ft 475kts
05-Sep-19 16:56 36.865077 -112.620592 40 34095ft 472kts
05-Sep-19 16:57 36.965772 -112.514996 40 35222ft 471kts
05-Sep-19 16:58 37.066007 -112.409461 40 36156ft 472kts
05-Sep-19 16:59 37.166358 -112.303376 40 37072ft 470kts
05-Sep-19 17:00 37.266159 -112.197523 40 37326ft 469kts
05-Sep-19 17:01 37.365783 -112.091491 40 37357ft 468kts
05-Sep-19 17:02 37.457922 -111.975813 46 37437ft 468kts
05-Sep-19 17:03 37.548391 -111.857493 46 37457ft 468kts
05-Sep-19 17:04 37.638577 -111.739145 46 37442ft 468kts
05-Sep-19 17:05 37.728855 -111.620367 46 37419ft 468kts
05-Sep-19 17:06 37.818790 -111.501524 46 37387ft 468kts
05-Sep-19 17:07 37.908828 -111.382122 46 37369ft 468kts
05-Sep-19 17:08 37.998549 -111.262663 46 37326ft 468kts
05-Sep-19 17:09 38.088201 -111.142886 46 37309ft 467kts
05-Sep-19 17:10 38.177785 -111.022701 46 37266ft 467kts
05-Sep-19 17:11 38.266855 -110.902752 46 37215ft 466kts
05-Sep-19 17:12 38.355548 -110.782879 46 37166ft 466kts
05-Sep-19 17:13 38.434548 -110.652563 66 37132ft 465kts
05-Sep-19 17:14 38.485185 -110.501072 66 37134ft 465kts
05-Sep-19 17:15 38.538081 -110.350063 67 37160ft 465kts
05-Sep-19 17:16 38.589960 -110.198212 67 37186ft 465kts
05-Sep-19 17:17 38.641664 -110.046836 67 37207ft 465kts
05-Sep-19 17:18 38.693388 -109.894568 67 37204ft 465kts
05-Sep-19 17:19 38.744734 -109.742521 67 37190ft 464kts
05-Sep-19 17:20 38.795750 -109.590787 67 37110ft 463kts
05-Sep-19 17:21 38.846413 -109.439228 66 37125ft 464kts
05-Sep-19 17:22 38.897008 -109.287092 67 37183ft 463kts
05-Sep-19 17:23 38.947468 -109.134512 67 37232ft 463kts
05-Sep-19 17:24 38.997624 -108.982029 67 37196ft 463kts
05-Sep-19 17:25 39.047606 -108.829333 67 37192ft 462kts
05-Sep-19 17:26 39.107827 -108.683320 59 37159ft 462kts
05-Sep-19 17:27 39.171426 -108.539939 60 37164ft 462kts
05-Sep-19 17:28 39.234830 -108.395818 60 37178ft 462kts
05-Sep-19 17:29 39.298283 -108.250771 60 36580ft 462kts
05-Sep-19 17:30 39.362267 -108.104026 61 33469ft 474kts
05-Sep-19 17:31 39.426772 -107.955287 61 30564ft 474kts
05-Sep-19 17:32 39.491503 -107.805277 61 27156ft 480kts
05-Sep-19 17:33 39.554711 -107.650609 64 26312ft 486kts
05-Sep-19 17:34 39.612866 -107.495831 64 24534ft 485kts
05-Sep-19 17:35 39.673159 -107.335543 64 24597ft 497kts
05-Sep-19 17:36 39.733354 -107.174379 64 24611ft 496kts
05-Sep-19 17:37 39.791439 -107.018047 64 22563ft 470kts
05-Sep-19 17:38 39.847594 -106.866115 64 19144ft 454kts
05-Sep-19 17:39 39.901269 -106.720150 64 17282ft 443kts
05-Sep-19 17:40 39.953946 -106.576207 64 17093ft 441kts
05-Sep-19 17:41 40.005775 -106.433844 64 17081ft 408kts
05-Sep-19 17:42 39.986582 -106.314882 151 17029ft 332kts
05-Sep-19 17:43 39.905485 -106.329401 196 17099ft 286kts
05-Sep-19 17:44 39.833407 -106.362932 216 17112ft 275kts
05-Sep-19 17:45 39.819192 -106.451460 288 17140ft 275kts
05-Sep-19 17:46 39.869372 -106.521471 345 17100ft 276kts
05-Sep-19 17:47 39.938909 -106.487797 30 17094ft 276kts
05-Sep-19 17:48 40.006498 -106.439396 35 17067ft 277kts
05-Sep-19 17:49 40.011069 -106.353229 139 17070ft 277kts
05-Sep-19 17:50 39.941725 -106.360482 229 16737ft 270kts
05-Sep-19 17:51 39.898018 -106.439769 233 15442ft 265kts
05-Sep-19 17:52 39.854961 -106.516060 233 14186ft 257kts
05-Sep-19 17:53 39.813577 -106.588888 230 14042ft 235kts
05-Sep-19 17:54 39.757758 -106.619082 198 12791ft 214kts
05-Sep-19 17:55 39.703957 -106.640568 204 12165ft 200kts
05-Sep-19 17:56 39.678089 -106.701971 252 11201ft 198kts
05-Sep-19 17:58 39.665241 -106.760362 254 9924ft 152kts
05-Sep-19 17:59 39.654983 -106.813419 255 8458ft 150kts
05-Sep-19 18:00 39.648057 -106.867241 261 7128ft 152kts
05-Sep-19 18:01 39.642626 -106.917248 261 6529ft 62kts
05-Sep-19 18:02 39.640960 -106.922274 82 6529ft 1kts
05-Sep-19 18:03 39.641066 -106.911646 171 6529ft 0kts
05-Sep-19 18:04 39.641065 -106.911646 171 6529ft 0kts
05-Sep-19 18:05 39.641065 -106.911646 171 6529ft 0kts
05-Sep-19 18:06 39.641065 -106.911646 171 6529ft 0kts
05-Sep-19 18:07 39.641065 -106.911646 171 6529ft 0kts
05-Sep-19 18:08 39.641065 -106.911646 171 6529ft 0kts
05-Sep-19 18:09 39.641065 -106.911646 171 6529ft 0kts
05-Sep-19 18:10 39.641065 -106.911646 171 6529ft 0kts
05-Sep-19 18:11 39.641065 -106.911646 171 6529ft 0kts

Navigation Log

Ident Type
Flight plan parsing failed, navigation log unavailable